Latest Weather Observations for Cape Jaffa

IDS60801

Issued at 6:51 pm CDT Sunday 24 January 2021 (issued every 10 minutes, with the page automatically refreshed every 10 minutes)

About weather observations | Map of weather stations | Latest weather observations for SA | Other Formats
Station Details ID: 026095 Name: THE LIMESTONE Lat: -36.97 Lon: 139.72 Height: 17.0 m
Data from the previous 72 hours. | See also: Recent months at Cape Jaffa
Date/Time
CDT
Temp
°C
App
Temp
°C
Dew
Point
°C
Rel
Hum
%
Delta-T
°C
Wind Press
QNH
hPa
Press
MSL
hPa
Rain since
9am
mm
Dir  Spd
km/h
Gust
km/h
Spd
kts
Gust
kts
24/06:30pm 37.1 31.8 3.0 12 18.0 WNW 20 26 11 14 1000.7 1000.7 0.0
24/06:00pm 38.5 33.4 2.8 11 18.9 NW 19 28 10 15 1000.7 1000.7 0.0
24/05:30pm 39.1 34.0 3.3 11 19.2 NW 19 26 10 14 1001.1 1001.1 0.0
24/05:00pm 40.6 35.3 3.1 10 20.1 NNW 20 26 11 14 1001.2 1001.2 0.0
24/04:30pm 40.8 34.5 1.7 9 20.6 N 24 28 13 15 1001.5 1001.5 0.0
24/04:00pm 40.4 34.3 2.9 10 20.0 N 24 33 13 18 1001.8 1001.8 0.0
24/03:30pm 40.4 34.7 2.9 10 20.1 N 22 28 12 15 1002.2 1002.2 0.0
24/03:00pm 39.5 33.5 3.6 11 19.3 N 24 30 13 16 1002.7 1002.7 0.0
24/02:30pm 39.2 33.4 4.6 12 18.9 N 24 32 13 17 1003.0 1003.0 0.0
24/02:00pm 38.4 32.4 5.1 13 18.2 N 26 33 14 18 1003.4 1003.4 0.0
24/01:30pm 38.4 32.7 5.1 13 18.2 N 24 33 13 18 1004.0 1004.0 0.0
24/01:00pm 37.5 31.2 5.5 14 17.5 N 28 35 15 19 1004.5 1004.4 0.0
24/12:30pm 38.2 33.2 8.0 16 17.2 NNE 24 33 13 18 1005.0 1004.9 0.0
24/12:00pm 35.2 29.1 8.1 19 15.3 NNE 30 39 16 21 1005.5 1005.4 0.0
24/11:30am 34.1 28.7 9.4 22 14.1 NNE 28 35 15 19 1006.0 1005.9 0.0
24/11:00am 31.4 27.7 10.2 27 12.1 NNE 20 26 11 14 1006.3 1006.2 0.0
24/10:30am 29.5 26.5 10.6 31 10.8 NNE 17 22 9 12 1006.8 1006.7 0.0
24/10:00am 29.2 27.1 9.9 30 10.9 NE 11 17 6 9 1007.2 1007.1 0.0
24/09:30am 28.5 26.9 10.2 32 10.3 ENE 9 22 5 12 1007.3 1007.2 0.0
24/09:00am 27.6 23.6 10.3 34 9.7 ENE 22 28 12 15 1006.9 1006.8 0.0
24/08:30am 26.4 23.5 10.9 38 8.8 ENE 17 22 9 12 1007.1 1007.0 0.0
24/08:00am 24.9 22.4 11.1 42 7.8 ENE 15 19 8 10 1007.1 1007.0 0.0
24/07:30am 23.6 20.2 11.3 46 6.9 ENE 20 24 11 13 1006.7 1006.6 0.0
24/07:00am 22.6 19.9 11.7 50 6.1 ENE 17 20 9 11 1006.8 1006.7 0.0
24/06:30am 21.9 19.3 11.9 53 5.6 ENE 17 20 9 11 1006.6 1006.5 0.0
24/06:00am 21.7 18.7 12.0 54 5.5 ENE 19 20 10 11 1006.4 1006.3 0.0
24/05:30am 21.9 18.9 11.9 53 5.6 ENE 19 20 10 11 1006.2 1006.1 0.0
24/05:00am 22.3 19.3 12.0 52 5.8 ENE 19 22 10 12 1006.0 1005.9 0.0
24/04:30am 22.8 20.2 12.1 51 6.1 ENE 17 22 9 12 1006.0 1005.9 0.0
24/04:00am 22.7 19.8 12.3 52 5.9 ENE 19 24 10 13 1006.1 1006.0 0.0
24/03:30am 21.9 19.4 12.2 54 5.5 ENE 17 20 9 11 1006.3 1006.2 0.0
24/03:00am 21.2 18.2 11.8 55 5.3 ENE 19 20 10 11 1006.4 1006.3 0.0
24/02:30am 22.0 18.7 11.7 52 5.8 ENE 20 26 11 14 1006.7 1006.6 0.0
24/02:00am 22.0 19.3 11.7 52 5.8 ENE 17 20 9 11 1007.0 1006.9 0.0
24/01:30am 21.9 19.3 11.9 53 5.6 ENE 17 22 9 12 1007.2 1007.1 0.0
24/01:00am 22.0 19.4 12.0 53 5.6 E 17 20 9 11 1007.6 1007.5 0.0
24/12:30am 22.6 19.6 12.0 51 6.0 E 19 22 10 12 1008.0 1007.9 0.0
24/12:00am 22.7 20.4 11.7 49 6.2 E 15 20 8 11 1008.3 1008.2 0.0
 
Date/Time
CDT
Temp
°C
App
Temp
°C
Dew
Point
°C
Rel
Hum
%
Delta-T
°C
Wind Press
QNH
hPa
Press
MSL
hPa
Rain since
9am
mm
Dir  Spd
km/h
Gust
km/h
Spd
kts
Gust
kts
23/11:30pm 21.6 19.8 10.7 50 6.0 ESE 11 15 6 8 1008.7 1008.6 0.0
23/11:00pm 21.6 20.1 10.7 50 6.0 ESE 9 13 5 7 1009.1 1009.0 0.0
23/10:30pm 21.3 19.9 10.8 51 5.8 ESE 9 13 5 7 1009.3 1009.2 0.0
23/10:00pm 21.2 19.7 10.7 51 5.7 ESE 9 13 5 7 1009.3 1009.2 0.0
23/09:30pm 21.8 20.1 11.2 51 5.9 ESE 11 13 6 7 1009.4 1009.3 0.0
23/09:00pm 22.3 21.2 12.0 52 5.8 SE 9 15 5 8 1009.5 1009.4 0.0
23/08:30pm 22.3 21.3 12.3 53 5.7 SSE 9 13 5 7 1009.4 1009.3 0.0
23/08:00pm 23.2 22.4 12.8 52 6.0 S 9 13 5 7 1009.4 1009.3 0.0
23/07:30pm 23.3 21.0 12.9 52 6.0 S 17 19 9 10 1009.4 1009.3 0.0
23/07:00pm 25.1 22.8 13.0 47 7.0 S 17 20 9 11 1009.4 1009.3 0.0
23/06:30pm 25.0 22.4 13.2 48 6.9 S 19 24 10 13 1009.2 1009.1 0.0
23/06:00pm 25.3 22.0 12.9 46 7.2 SSW 22 26 12 14 1009.3 1009.2 0.0
23/05:30pm 25.9 22.3 10.5 38 8.6 S 20 24 11 13 1009.2 1009.1 0.0
23/05:00pm 25.2 20.4 8.7 35 8.9 SSW 24 28 13 15 1009.4 1009.3 0.0
23/04:30pm 24.4 20.4 10.3 41 7.8 S 22 26 12 14 1009.6 1009.5 0.0
23/04:00pm 24.1 20.5 11.8 46 7.0 SSW 22 24 12 13 1009.9 1009.8 0.0
23/03:30pm 24.6 21.5 12.2 46 7.1 SSW 20 24 11 13 1010.3 1010.2 0.0
23/03:00pm 25.3 23.6 12.5 45 7.4 SSW 13 19 7 10 1010.4 1010.3 0.0
23/02:30pm 25.4 24.1 12.6 45 7.4 SSW 11 15 6 8 1010.5 1010.4 0.0
23/02:00pm 24.4 22.9 13.0 49 6.6 SW 13 17 7 9 1011.1 1011.0 0.0
23/01:30pm 24.6 23.5 13.2 49 6.6 SW 11 19 6 10 1011.2 1011.1 0.0
23/01:00pm 24.3 22.6 12.6 48 6.7 WSW 13 19 7 10 1011.5 1011.4 0.0
23/12:30pm 25.0 23.2 12.2 44 7.3 WNW 13 19 7 10 1011.7 1011.6 0.0
23/12:00pm 24.5 22.2 11.8 45 7.2 W 15 20 8 11 1011.5 1011.4 0.0
23/11:30am 25.5 24.5 12.4 44 7.6 W 9 17 5 9 1011.4 1011.3 0.0
23/11:00am 25.6 24.5 10.6 39 8.4 NE 7 11 4 6 1011.2 1011.1 0.0
23/10:30am 23.0 21.4 11.7 49 6.4 N 11 17 6 9 1011.7 1011.6 0.0
23/10:00am 22.3 21.5 11.7 51 5.9 NNE 7 13 4 7 1012.0 1011.9 0.0
23/09:30am 20.5 20.0 12.5 60 4.5 NE 7 13 4 7 1012.0 1011.9 0.0
23/09:00am 19.4 18.7 13.1 67 3.6 E 9 15 5 8 1012.1 1012.0 0.0
23/08:30am 17.4 15.9 13.1 76 2.4 E 13 15 7 8 1011.9 1011.8 0.0
23/08:00am 15.2 14.2 12.3 83 1.6 ESE 9 13 5 7 1012.3 1012.2 0.0
23/07:30am 13.8 13.0 11.7 87 1.1 ESE 7 11 4 6 1011.8 1011.7 0.0
23/07:00am 12.6 11.6 11.0 90 0.8 ESE 7 11 4 6 1011.5 1011.4 0.0
23/06:30am 11.8 10.7 10.5 92 0.7 ESE 7 11 4 6 1011.1 1011.0 0.0
23/06:00am 11.8 10.7 10.5 92 0.7 ESE 7 9 4 5 1011.0 1010.9 0.0
23/05:30am 11.9 11.0 10.6 92 0.7 SE 6 7 3 4 1011.0 1010.9 0.0
23/05:00am 12.3 11.5 10.9 91 0.7 ESE 6 9 3 5 1010.8 1010.7 0.0
23/04:30am 12.4 11.0 11.0 91 0.7 SE 9 13 5 7 1010.5 1010.4 0.0
23/04:00am 12.7 11.4 11.1 90 0.8 SE 9 13 5 7 1010.6 1010.5 0.0
23/03:30am 12.9 11.6 11.3 90 0.8 SSE 9 15 5 8 1010.8 1010.7 0.0
23/03:00am 13.2 12.4 11.6 90 0.9 SSE 7 11 4 6 1011.3 1011.2 0.0
23/02:30am 13.4 12.6 11.6 89 1.0 SSE 7 11 4 6 1011.5 1011.4 0.0
23/02:00am 13.4 12.6 11.6 89 1.0 SSE 7 9 4 5 1011.7 1011.6 0.0
23/01:30am 13.9 12.8 11.9 88 1.1 SSE 9 11 5 6 1011.9 1011.8 0.0
23/01:00am 13.6 12.8 11.7 88 1.0 SE 7 9 4 5 1012.0 1011.9 0.0
23/12:30am 14.0 13.3 11.9 87 1.1 SSE 7 11 4 6 1012.1 1012.0 0.0
23/12:00am 14.4 13.0 12.1 86 1.2 SSE 11 17 6 9 1012.1 1012.0 0.0
 
Date/Time
CDT
Temp
°C
App
Temp
°C
Dew
Point
°C
Rel
Hum
%
Delta-T
°C
Wind Press
QNH
hPa
Press
MSL
hPa
Rain since
9am
mm
Dir  Spd
km/h
Gust
km/h
Spd
kts
Gust
kts
22/11:30pm 14.5 13.1 12.2 86 1.2 SSE 11 15 6 8 1012.4 1012.3 0.0
22/11:00pm 14.8 13.0 12.1 84 1.5 SSE 13 17 7 9 1012.6 1012.5 0.0
22/10:30pm 15.3 13.1 12.2 82 1.7 SSE 15 19 8 10 1012.6 1012.5 0.0
22/10:00pm 15.7 13.6 12.5 81 1.8 SSE 15 19 8 10 1012.6 1012.5 0.0
22/09:30pm 15.9 12.9 12.5 80 1.9 S 20 24 11 13 1012.5 1012.4 0.0
22/09:00pm 15.9 13.8 12.5 80 1.9 S 15 19 8 10 1012.3 1012.2 0.0
22/08:30pm 16.3 13.5 12.5 78 2.1 S 19 24 10 13 1012.1 1012.0 0.0
22/08:00pm 16.9 13.2 12.6 76 2.4 S 24 28 13 15 1011.8 1011.7 0.0
22/07:30pm 17.5 13.8 12.8 74 2.6 S 24 30 13 16 1011.8 1011.7 0.0
22/07:00pm 17.9 13.5 12.8 72 2.9 SSW 28 32 15 17 1011.7 1011.6 0.0
22/06:30pm 18.7 14.7 13.1 70 3.2 SSW 26 32 14 17 1011.6 1011.5 0.0
22/06:00pm 18.7 14.4 13.1 70 3.2 SSW 28 33 15 18 1011.4 1011.3 0.0
22/05:30pm 19.2 15.0 13.4 69 3.3 SSW 28 35 15 19 1011.6 1011.5 0.0
22/05:00pm 19.5 14.8 13.2 67 3.6 SSW 30 33 16 18 1011.5 1011.4 0.0
22/04:30pm 20.7 17.0 13.9 65 3.9 SSW 26 33 14 18 1011.6 1011.5 0.0
22/04:00pm 19.9 16.5 13.6 67 3.6 SSW 24 30 13 16 1011.7 1011.6 0.0
22/03:30pm 20.2 16.7 13.4 65 3.9 SSW 24 32 13 17 1012.0 1011.9 0.0
22/03:00pm 19.9 16.3 13.1 65 3.9 SSW 24 30 13 16 1011.9 1011.8 0.0
22/02:30pm 21.1 17.6 13.5 62 4.4 SSW 24 32 13 17 1012.1 1012.0 0.0
22/02:00pm 21.8 19.2 13.9 61 4.6 SSW 20 26 11 14 1012.2 1012.1 0.0
22/01:30pm 20.6 17.8 13.3 63 4.2 SW 20 30 11 16 1012.5 1012.4 0.0
22/01:00pm 20.3 17.2 13.3 64 4.0 SW 22 28 12 15 1012.7 1012.6 0.0
22/12:30pm 20.5 17.7 14.2 67 3.7 SW 22 28 12 15 1012.8 1012.7 0.0
22/12:00pm 20.0 16.9 14.4 70 3.3 SW 24 30 13 16 1012.9 1012.8 0.0
22/11:30am 20.4 18.6 14.5 69 3.4 SW 17 24 9 13 1012.9 1012.8 0.0
22/11:00am 19.5 17.6 14.1 71 3.1 SW 17 22 9 12 1013.0 1012.9 0.0
22/10:30am 18.9 17.0 14.2 74 2.7 SW 17 24 9 13 1013.0 1012.9 0.0
22/10:00am 18.7 17.1 13.8 73 2.8 SW 15 20 8 11 1012.7 1012.6 0.0
22/09:30am 17.9 16.9 13.4 75 2.5 WSW 11 19 6 10 1012.5 1012.4 0.0
22/09:00am 17.0 15.6 13.3 79 2.1 WSW 13 17 7 9 1012.5 1012.4 0.0
22/08:30am 15.8 14.8 13.3 85 1.4 SW 11 19 6 10 1012.2 1012.1 0.0
22/08:00am 15.1 14.5 13.5 90 0.9 SSW 9 13 5 7 1012.1 1012.0 0.0
22/07:30am 14.0 15.0 13.2 95 0.4 CALM 0 4 0 2 1011.7 1011.6 0.0
22/07:00am 13.2 13.2 12.4 95 0.4 SSE 4 6 2 3 1011.3 1011.2 0.0
22/06:30am 12.1 11.7 11.2 94 0.5 SSE 4 7 2 4 1010.6 1010.5 0.0
22/06:00am 12.9 12.8 12.0 94 0.5 SSE 4 4 2 2 1010.5 1010.4 0.0
22/05:30am 13.0 12.5 12.1 94 0.5 SSE 6 6 3 3 1009.9 1009.8 0.0
22/05:00am 13.0 12.5 11.9 93 0.6 SSE 6 7 3 4 1010.3 1010.2 0.0
22/04:30am 13.4 12.7 12.1 92 0.7 S 7 9 4 5 1010.1 1010.0 0.0
22/04:00am 13.8 13.3 12.5 92 0.7 S 7 9 4 5 1010.2 1010.1 0.0
22/03:30am 14.5 13.8 13.2 92 0.7 SSW 9 13 5 7 1009.9 1009.8 0.0
22/03:00am 15.0 13.8 13.9 93 0.6 SSW 13 19 7 10 1009.8 1009.7 0.0
22/02:30am 15.1 13.9 14.1 94 0.6 S 13 17 7 9 1010.0 1009.9 0.0
22/02:00am 14.5 13.2 13.7 95 0.4 S 13 17 7 9 1010.0 1009.9 0.0
22/01:30am 14.1 13.0 13.1 94 0.6 S 11 13 6 7 1010.1 1010.0 0.0
22/01:00am 14.8 13.2 13.8 94 0.6 SSW 15 20 8 11 1010.6 1010.5 0.0
22/12:30am 15.7 13.5 14.9 95 0.5 SSW 20 24 11 13 1010.9 1010.8 0.0
22/12:00am 15.6 14.7 14.8 95 0.5 SW 13 20 7 11 1011.1 1011.0 0.0
 
Date/Time
CDT
Temp
°C
App
Temp
°C
Dew
Point
°C
Rel
Hum
%
Delta-T
°C
Wind Press
QNH
hPa
Press
MSL
hPa
Rain since
9am
mm
Dir  Spd
km/h
Gust
km/h
Spd
kts
Gust
kts
21/11:30pm 14.7 13.8 13.7 94 0.6 SSW 11 15 6 8 1011.0 1010.9 0.0
21/11:00pm 15.0 13.9 14.2 95 0.5 SSW 13 15 7 8 1011.3 1011.2 0.0
21/10:30pm 14.9 14.1 13.9 94 0.6 SSW 11 13 6 7 1011.6 1011.5 0.0
21/10:00pm 15.2 14.1 14.2 94 0.6 SSW 13 17 7 9 1011.8 1011.7 0.0
21/09:30pm 14.9 14.4 13.8 93 0.6 SSW 9 11 5 6 1011.4 1011.3 0.0
21/09:00pm 15.4 14.6 14.1 92 0.7 SSW 11 13 6 7 1011.1 1011.0 0.0
21/08:30pm 16.0 14.9 14.4 90 0.9 SSW 13 17 7 9 1011.1 1011.0 0.0
21/08:00pm 17.1 14.9 14.9 87 1.3 SW 20 26 11 14 1011.0 1010.9 0.0
21/07:30pm 17.8 15.7 15.1 84 1.6 SW 20 26 11 14 1011.0 1010.9 0.0
21/07:00pm 19.0 16.9 15.1 78 2.3 SW 20 26 11 14 1010.7 1010.6 0.0

Other formats

Comma delimited format used in spreadsheet applications
http://www.bom.gov.au/fwo/IDS60801/IDS60801.94813.axf

JavaScript Object Notation format (JSON) in row-major order
http://www.bom.gov.au/fwo/IDS60801/IDS60801.94813.json

Data quality

Most of these data are generated automatically and are frequently updated. Quality checks on data are not normally performed. It is possible for incorrect values to appear. Refer to information at About Latest Weather Observations and please check the disclaimer before using these data.